createdAt,value
2019-05-03T00:00:02.638Z,0.90
2019-05-03T00:02:44.911Z,0.93
2019-05-03T00:05:24.513Z,0.80
2019-05-03T00:07:56.226Z,0.63
2019-05-03T00:10:25.538Z,0.93
2019-05-03T00:12:54.785Z,0.80
2019-05-03T00:15:32.324Z,0.70
2019-05-03T00:18:02.363Z,0.80
2019-05-03T00:20:32.632Z,0.63
2019-05-03T00:23:02.922Z,0.70
2019-05-03T00:25:32.613Z,0.80
2019-05-03T00:28:02.032Z,0.80
2019-05-03T00:30:32.046Z,0.70
2019-05-03T00:33:02.928Z,0.77
2019-05-03T00:35:51.911Z,0.57
2019-05-03T00:38:21.842Z,0.60
2019-05-03T00:40:52.338Z,0.63
2019-05-03T00:43:22.287Z,0.60
2019-05-03T00:45:51.747Z,0.80
2019-05-03T00:48:21.915Z,0.57
2019-05-03T00:50:51.784Z,0.60
2019-05-03T00:53:22.451Z,0.73
2019-05-03T00:55:52.527Z,0.47
2019-05-03T00:58:22.416Z,0.50
2019-05-03T01:00:52.443Z,0.73
2019-05-03T01:03:22.097Z,1.00
2019-05-03T01:05:52.762Z,0.70
2019-05-03T01:08:22.161Z,0.60
2019-05-03T01:10:51.655Z,1.00
2019-05-03T01:13:21.841Z,1.13
2019-05-03T01:15:58.081Z,0.60
2019-05-03T01:18:27.334Z,1.00
2019-05-03T01:20:56.364Z,0.70
2019-05-03T01:23:25.296Z,1.00
2019-05-03T01:25:54.301Z,1.03
2019-05-03T01:28:23.285Z,0.90
2019-05-03T01:30:52.300Z,1.00
2019-05-03T01:33:22.637Z,0.90
2019-05-03T01:35:51.957Z,1.00
2019-05-03T01:38:22.661Z,0.77
2019-05-03T01:40:52.220Z,0.60
2019-05-03T01:43:22.223Z,0.90
2019-05-03T01:45:52.021Z,0.90
2019-05-03T01:48:33.910Z,0.80
2019-05-03T01:51:21.971Z,1.10
2019-05-03T01:53:52.383Z,1.17
2019-05-03T01:56:22.294Z,1.27
2019-05-03T01:58:52.386Z,1.13
2019-05-03T02:01:31.656Z,1.20
2019-05-03T02:04:12.093Z,1.10
2019-05-03T02:06:42.484Z,1.30
2019-05-03T02:09:12.222Z,1.10
2019-05-03T02:11:42.149Z,1.43
2019-05-03T02:14:12.343Z,1.70
2019-05-03T02:16:42.028Z,1.00
2019-05-03T02:19:12.633Z,1.17
2019-05-03T02:21:41.778Z,1.40
2019-05-03T02:24:11.812Z,1.17
2019-05-03T02:26:42.480Z,1.17
2019-05-03T02:29:12.602Z,1.40
2019-05-03T02:31:43.661Z,1.40
2019-05-03T02:34:12.662Z,1.90
2019-05-03T02:36:42.899Z,1.47
2019-05-03T02:39:14.165Z,1.50
2019-05-03T02:41:47.878Z,1.37
2019-05-03T02:44:16.502Z,1.83
2019-05-03T02:47:05.685Z,1.47
2019-05-03T02:49:45.509Z,1.50
2019-05-03T02:52:35.851Z,1.47
2019-05-03T02:55:08.644Z,1.83
2019-05-03T02:57:37.699Z,1.97
2019-05-03T03:00:09.310Z,1.90
2019-05-03T03:02:39.364Z,1.73
2019-05-03T03:05:09.596Z,1.57
2019-05-03T03:07:40.330Z,2.17
2019-05-03T03:10:09.815Z,2.00
2019-05-03T03:12:41.229Z,1.80
2019-05-03T03:15:10.348Z,2.27
2019-05-03T03:17:41.446Z,1.93
2019-05-03T03:20:11.126Z,2.33
2019-05-03T03:22:45.609Z,2.43
2019-05-03T03:25:19.177Z,1.83
2019-05-03T03:27:50.839Z,2.30
2019-05-03T03:30:48.726Z,1.60
2019-05-03T03:33:17.749Z,2.13
2019-05-03T03:35:48.939Z,2.27
2019-05-03T03:38:17.813Z,2.33
2019-05-03T03:40:47.453Z,2.10
2019-05-03T03:43:17.918Z,1.80
2019-05-03T03:45:47.611Z,1.93
2019-05-03T03:48:19.409Z,2.00
2019-05-03T03:50:50.474Z,2.13
2019-05-03T03:53:22.960Z,1.90
2019-05-03T03:55:56.428Z,1.60
2019-05-03T03:58:27.031Z,1.60
2019-05-03T04:00:56.421Z,1.90
2019-05-03T04:03:26.217Z,2.80
2019-05-03T04:05:55.597Z,1.63
2019-05-03T04:08:25.894Z,2.40
2019-05-03T04:10:55.895Z,2.17
2019-05-03T04:13:25.739Z,2.80
2019-05-03T04:16:11.726Z,2.40
2019-05-03T04:18:47.629Z,2.77
2019-05-03T04:21:16.821Z,2.73
2019-05-03T04:23:46.017Z,4.70
2019-05-03T04:26:16.287Z,3.47
2019-05-03T04:28:45.632Z,4.73
2019-05-03T04:31:15.275Z,4.57
2019-05-03T04:33:45.182Z,4.17
2019-05-03T04:36:15.911Z,4.40
2019-05-03T04:38:45.515Z,4.93
2019-05-03T04:41:15.846Z,5.50
2019-05-03T04:43:45.986Z,5.60
2019-05-03T04:46:19.639Z,6.30
2019-05-03T04:48:48.613Z,8.93
2019-05-03T04:51:17.890Z,6.57
2019-05-03T04:54:06.009Z,8.17
2019-05-03T04:56:35.956Z,7.60
2019-05-03T04:59:05.309Z,7.83
2019-05-03T05:01:35.269Z,7.03
2019-05-03T05:04:05.310Z,6.90
2019-05-03T05:06:35.124Z,7.90
2019-05-03T05:09:06.342Z,7.93
2019-05-03T05:11:35.333Z,7.13
2019-05-03T05:14:06.379Z,6.90
2019-05-03T05:16:35.703Z,8.60
2019-05-03T05:19:08.278Z,10.53
2019-05-03T05:21:42.009Z,8.10
2019-05-03T05:24:10.946Z,8.93
2019-05-03T05:27:11.134Z,8.50
2019-05-03T05:29:40.219Z,9.43
2019-05-03T05:32:09.462Z,9.40
2019-05-03T05:34:38.465Z,10.23
2019-05-03T05:37:07.745Z,10.93
2019-05-03T05:39:36.706Z,12.40
2019-05-03T05:42:06.013Z,10.40
2019-05-03T05:44:35.290Z,10.67
2019-05-03T05:47:17.834Z,10.53
2019-05-03T05:50:00.241Z,10.43
2019-05-03T05:52:29.553Z,10.10
2019-05-03T05:55:17.556Z,10.43
2019-05-03T05:58:04.771Z,10.67
2019-05-03T06:00:35.790Z,9.97
2019-05-03T06:03:05.129Z,10.37
2019-05-03T06:05:35.543Z,10.77
2019-05-03T06:08:15.208Z,10.77
2019-05-03T06:10:50.610Z,12.87
2019-05-03T06:13:34.531Z,11.70
2019-05-03T06:16:10.906Z,11.80
2019-05-03T06:19:00.668Z,11.20
2019-05-03T06:21:45.389Z,12.20
2019-05-03T06:24:21.094Z,11.60
2019-05-03T06:26:57.646Z,11.87
2019-05-03T06:29:26.580Z,12.83
2019-05-03T06:32:16.407Z,13.90
2019-05-03T06:34:45.609Z,14.93
2019-05-03T06:37:16.426Z,12.90
2019-05-03T06:39:45.581Z,13.17
2019-05-03T06:42:19.010Z,15.40
2019-05-03T06:44:45.687Z,17.47
2019-05-03T06:47:14.925Z,15.43
2019-05-03T06:49:46.831Z,16.70
2019-05-03T06:52:14.836Z,16.13
2019-05-03T06:54:44.880Z,16.90
2019-05-03T06:57:15.822Z,17.53
2019-05-03T07:00:11.341Z,19.30
2019-05-03T07:02:58.429Z,18.97
2019-05-03T07:05:45.042Z,19.40
2019-05-03T07:08:34.346Z,19.33
2019-05-03T07:11:05.107Z,27.50
2019-05-03T07:13:34.577Z,19.43
2019-05-03T07:16:04.669Z,19.97
2019-05-03T07:18:35.205Z,21.83
2019-05-03T07:21:04.982Z,19.30
2019-05-03T07:23:34.970Z,19.90
2019-05-03T07:26:05.387Z,21.10
2019-05-03T07:28:46.728Z,20.40
2019-05-03T07:31:05.207Z,20.43
2019-05-03T07:33:34.944Z,20.57
2019-05-03T07:36:05.316Z,20.10
2019-05-03T07:38:35.078Z,20.37
2019-05-03T07:41:05.279Z,20.87
2019-05-03T07:43:36.117Z,20.83
2019-05-03T07:46:05.712Z,19.50
2019-05-03T07:48:35.404Z,20.43
2019-05-03T07:51:05.465Z,20.77
2019-05-03T07:53:34.974Z,21.93
2019-05-03T07:56:12.387Z,19.63
2019-05-03T07:58:44.955Z,19.03
2019-05-03T08:01:20.273Z,19.67
2019-05-03T08:03:49.278Z,20.80
2019-05-03T08:06:18.222Z,19.10
2019-05-03T08:08:47.757Z,20.90
2019-05-03T08:11:16.810Z,21.03
2019-05-03T08:13:45.854Z,19.30
2019-05-03T08:16:16.046Z,20.33
2019-05-03T08:18:45.717Z,22.37
2019-05-03T08:21:15.015Z,21.87
2019-05-03T08:23:45.346Z,25.70
2019-05-03T08:26:15.302Z,22.07
2019-05-03T08:28:44.659Z,22.57
2019-05-03T08:31:38.623Z,21.87
2019-05-03T08:34:15.277Z,20.10
2019-05-03T08:37:05.208Z,19.70
2019-05-03T08:39:35.574Z,21.50
2019-05-03T08:42:09.660Z,18.97
2019-05-03T08:44:39.010Z,19.90
2019-05-03T08:47:08.378Z,18.60
2019-05-03T08:49:37.500Z,18.50
2019-05-03T08:52:06.515Z,20.30
2019-05-03T08:54:35.466Z,18.60
2019-05-03T08:57:06.250Z,22.40
2019-05-03T08:59:35.772Z,18.17
2019-05-03T09:02:13.978Z,18.77
2019-05-03T09:04:39.365Z,19.97
2019-05-03T09:07:07.542Z,18.10
2019-05-03T09:09:54.987Z,18.27
2019-05-03T09:12:25.202Z,19.50
2019-05-03T09:14:54.772Z,21.00
2019-05-03T09:17:24.706Z,20.67
2019-05-03T09:19:54.837Z,21.27
2019-05-03T09:22:25.559Z,19.73
2019-05-03T09:24:54.795Z,18.70
2019-05-03T09:27:24.735Z,16.13
2019-05-03T09:29:55.874Z,13.90
2019-05-03T09:32:25.661Z,10.67
2019-05-03T09:34:55.171Z,10.27
2019-05-03T09:37:25.102Z,10.67
2019-05-03T09:39:55.203Z,9.73
2019-05-03T09:42:24.864Z,9.33
2019-05-03T09:44:55.646Z,8.97
2019-05-03T09:47:25.218Z,9.00
2019-05-03T09:49:55.836Z,7.37
2019-05-03T09:52:25.172Z,7.37
2019-05-03T09:54:55.845Z,7.37
2019-05-03T09:57:24.871Z,7.80
2019-05-03T09:59:59.204Z,9.87
2019-05-03T10:02:24.767Z,10.03
2019-05-03T10:04:55.435Z,9.97
2019-05-03T10:07:25.784Z,10.77
2019-05-03T10:09:55.390Z,12.13
2019-05-03T10:12:25.678Z,10.30
2019-05-03T10:14:55.122Z,10.33
2019-05-03T10:17:41.078Z,11.57
2019-05-03T10:20:12.221Z,9.87
2019-05-03T10:22:41.220Z,8.60
2019-05-03T10:25:10.637Z,8.80
2019-05-03T10:27:46.241Z,8.33
2019-05-03T10:30:26.054Z,5.57
2019-05-03T10:33:10.061Z,4.30
2019-05-03T10:35:39.313Z,3.43
2019-05-03T10:38:08.396Z,3.00
2019-05-03T10:40:37.512Z,3.13
2019-05-03T10:43:09.731Z,2.87
2019-05-03T10:45:39.026Z,3.40
2019-05-03T10:48:08.018Z,3.80
2019-05-03T10:50:37.041Z,4.67
2019-05-03T10:53:11.103Z,3.83
2019-05-03T10:55:42.345Z,5.40
2019-05-03T10:58:17.017Z,5.30
2019-05-03T11:00:52.844Z,5.27
2019-05-03T11:03:19.230Z,6.03
2019-05-03T11:05:48.549Z,5.60
2019-05-03T11:08:17.585Z,4.67
2019-05-03T11:10:46.438Z,4.77
2019-05-03T11:13:15.547Z,4.23
2019-05-03T11:15:44.989Z,4.13
2019-05-03T11:18:14.809Z,3.83
2019-05-03T11:20:45.292Z,3.83
2019-05-03T11:23:14.818Z,2.50
2019-05-03T11:25:45.264Z,1.60
2019-05-03T11:28:19.710Z,1.70
2019-05-03T11:30:56.380Z,1.67
2019-05-03T11:33:25.786Z,2.40
2019-05-03T11:36:04.930Z,2.40
2019-05-03T11:38:39.340Z,2.50
2019-05-03T11:41:08.345Z,3.10
2019-05-03T11:43:37.732Z,2.97
2019-05-03T11:46:06.757Z,3.40
2019-05-03T11:48:35.774Z,4.33
2019-05-03T11:51:04.991Z,4.10
2019-05-03T11:53:35.605Z,4.43
2019-05-03T11:56:05.545Z,4.20
2019-05-03T11:58:34.700Z,4.47
2019-05-03T12:01:15.955Z,4.03
2019-05-03T12:03:45.132Z,5.00
2019-05-03T12:06:15.639Z,5.63
2019-05-03T12:08:44.936Z,7.57
2019-05-03T12:11:15.054Z,9.17
2019-05-03T12:13:45.626Z,10.07
2019-05-03T12:16:22.812Z,13.37
2019-05-03T12:18:53.011Z,16.40
2019-05-03T12:21:18.104Z,17.10
2019-05-03T12:23:47.637Z,19.43
2019-05-03T12:26:18.177Z,19.50
2019-05-03T12:28:47.853Z,17.97
2019-05-03T12:31:29.596Z,19.27
2019-05-03T12:33:48.040Z,18.87
2019-05-03T12:36:17.939Z,19.07
2019-05-03T12:38:47.568Z,19.00
2019-05-03T12:41:16.951Z,17.53
2019-05-03T12:43:46.214Z,14.17
2019-05-03T12:46:16.840Z,13.30
2019-05-03T12:48:46.096Z,14.40
2019-05-03T12:51:15.595Z,14.23
2019-05-03T12:53:45.016Z,15.70
2019-05-03T12:56:22.104Z,13.87
2019-05-03T12:58:50.991Z,14.97
2019-05-03T13:01:56.787Z,13.97
2019-05-03T13:04:29.527Z,16.03
2019-05-03T13:07:05.515Z,13.97
2019-05-03T13:09:35.759Z,14.17
2019-05-03T13:12:05.647Z,11.67
2019-05-03T13:14:34.664Z,11.80
2019-05-03T13:17:04.774Z,11.87
2019-05-03T13:19:34.922Z,10.43
2019-05-03T13:22:04.265Z,9.43
2019-05-03T13:24:34.691Z,7.43
2019-05-03T13:27:05.540Z,6.47
2019-05-03T13:29:34.904Z,7.87
2019-05-03T13:32:05.593Z,6.40
2019-05-03T13:34:35.391Z,8.03
2019-05-03T13:37:04.670Z,6.00
2019-05-03T13:39:35.723Z,7.10
2019-05-03T13:42:05.715Z,8.03
2019-05-03T13:44:35.592Z,7.97
2019-05-03T13:47:04.740Z,8.80
2019-05-03T13:49:35.415Z,8.13
2019-05-03T13:52:05.300Z,7.30
2019-05-03T13:54:35.001Z,8.83
2019-05-03T13:57:04.954Z,8.27
2019-05-03T13:59:34.083Z,8.23
2019-05-03T14:02:14.417Z,8.03
2019-05-03T14:04:42.768Z,9.33
2019-05-03T14:07:04.766Z,8.70
2019-05-03T14:09:34.834Z,9.33
2019-05-03T14:12:07.404Z,10.00
2019-05-03T14:14:55.315Z,9.47
2019-05-03T14:17:26.676Z,10.53
2019-05-03T14:20:09.792Z,9.40
2019-05-03T14:22:40.922Z,8.70
2019-05-03T14:25:10.008Z,8.57
2019-05-03T14:27:38.941Z,8.30
2019-05-03T14:30:08.598Z,8.47
2019-05-03T14:32:37.518Z,7.53
2019-05-03T14:35:06.846Z,8.87
2019-05-03T14:37:37.869Z,8.67
2019-05-03T14:40:07.618Z,7.53
2019-05-03T14:42:36.615Z,8.90
2019-05-03T14:45:05.736Z,7.80
2019-05-03T14:47:34.654Z,8.07
2019-05-03T14:50:05.503Z,7.50
2019-05-03T14:52:34.970Z,7.50
2019-05-03T14:55:14.722Z,8.10
2019-05-03T14:57:50.358Z,8.90
2019-05-03T15:00:35.514Z,8.20
2019-05-03T15:03:10.442Z,8.10
2019-05-03T15:05:39.449Z,8.70
2019-05-03T15:08:08.463Z,18.57
2019-05-03T15:10:37.719Z,12.37
2019-05-03T15:13:06.730Z,10.27
2019-05-03T15:15:35.609Z,14.60
2019-05-03T15:18:05.875Z,13.10
2019-05-03T15:20:35.093Z,11.23
2019-05-03T15:23:05.507Z,11.37
2019-05-03T15:25:34.811Z,10.77
2019-05-03T15:28:05.020Z,10.17
2019-05-03T15:30:35.237Z,11.00
2019-05-03T15:33:05.071Z,10.00
2019-05-03T15:35:35.197Z,10.67
2019-05-03T15:38:05.407Z,10.10
2019-05-03T15:40:34.946Z,9.00
2019-05-03T15:43:17.646Z,9.40
2019-05-03T15:45:54.948Z,9.93
2019-05-03T15:48:27.013Z,11.20
2019-05-03T15:50:56.078Z,13.00
2019-05-03T15:53:25.103Z,13.10
2019-05-03T15:55:55.112Z,10.27
2019-05-03T15:58:24.945Z,10.37
2019-05-03T16:00:55.379Z,10.83
2019-05-03T16:03:25.271Z,12.80
2019-05-03T16:05:55.674Z,8.90
2019-05-03T16:08:25.083Z,9.47
2019-05-03T16:10:54.977Z,10.63
2019-05-03T16:13:25.258Z,11.53
2019-05-03T16:15:55.269Z,10.50
2019-05-03T16:18:24.703Z,10.90
2019-05-03T16:20:54.665Z,9.67
2019-05-03T16:23:25.048Z,9.90
2019-05-03T16:25:54.559Z,10.27
2019-05-03T16:28:33.201Z,10.57
2019-05-03T16:31:08.605Z,9.40
2019-05-03T16:33:37.494Z,9.73
2019-05-03T16:36:07.477Z,11.17
2019-05-03T16:38:36.402Z,8.37
2019-05-03T16:41:05.741Z,9.93
2019-05-03T16:43:34.940Z,8.67
2019-05-03T16:46:05.643Z,11.27
2019-05-03T16:48:35.334Z,9.10
2019-05-03T16:51:04.712Z,11.27
2019-05-03T16:53:35.051Z,8.90
2019-05-03T16:56:04.223Z,9.37
2019-05-03T16:58:35.196Z,9.83
2019-05-03T17:01:04.008Z,11.80
2019-05-03T17:03:41.620Z,9.50
2019-05-03T17:06:39.356Z,10.00
2019-05-03T17:09:27.467Z,11.63
2019-05-03T17:12:07.230Z,11.33
2019-05-03T17:14:36.314Z,12.53
2019-05-03T17:17:07.254Z,64.73
2019-05-03T17:19:36.453Z,11.67
2019-05-03T17:22:05.668Z,10.93
2019-05-03T17:24:35.326Z,14.17
2019-05-03T17:27:04.904Z,10.73
2019-05-03T17:29:35.107Z,13.73
2019-05-03T17:32:04.921Z,11.83
2019-05-03T17:34:34.668Z,16.47
2019-05-03T17:37:05.011Z,13.17
2019-05-03T17:39:51.382Z,12.43
2019-05-03T17:42:27.218Z,13.03
2019-05-03T17:44:56.178Z,12.70
2019-05-03T17:47:25.564Z,12.87
2019-05-03T17:49:54.762Z,12.53
2019-05-03T17:52:42.874Z,13.43
2019-05-03T17:55:46.137Z,13.50
2019-05-03T17:58:24.344Z,13.87
2019-05-03T18:01:01.079Z,13.43
2019-05-03T18:03:32.633Z,13.77
2019-05-03T18:06:17.757Z,12.53
2019-05-03T18:09:08.826Z,12.67
2019-05-03T18:11:45.005Z,12.93
2019-05-03T18:14:14.689Z,12.23
2019-05-03T18:16:44.334Z,13.73
2019-05-03T18:19:13.413Z,13.20
2019-05-03T18:21:42.422Z,14.73
2019-05-03T18:24:11.600Z,14.27
2019-05-03T18:26:40.662Z,19.97
2019-05-03T18:29:09.622Z,21.33
2019-05-03T18:31:38.693Z,21.13
2019-05-03T18:34:18.587Z,17.23
2019-05-03T18:36:38.261Z,15.00
2019-05-03T18:39:10.187Z,16.00
2019-05-03T18:41:39.293Z,15.83
2019-05-03T18:44:18.009Z,15.83
2019-05-03T18:46:50.030Z,15.67
2019-05-03T18:49:19.075Z,17.83
2019-05-03T18:51:48.003Z,20.30
2019-05-03T18:54:17.019Z,22.87
2019-05-03T18:56:46.054Z,23.00
2019-05-03T18:59:15.101Z,28.27
2019-05-03T19:01:45.171Z,25.70
2019-05-03T19:04:34.646Z,24.43
2019-05-03T19:07:04.248Z,26.00
2019-05-03T19:09:39.126Z,27.60
2019-05-03T19:12:18.117Z,28.63
2019-05-03T19:14:47.168Z,21.63
2019-05-03T19:17:35.514Z,28.33
2019-05-03T19:20:08.085Z,33.03
2019-05-03T19:22:37.113Z,23.60
2019-05-03T19:25:06.424Z,22.90
2019-05-03T19:27:35.378Z,20.17
2019-05-03T19:30:04.758Z,18.27
2019-05-03T19:32:35.660Z,19.23
2019-05-03T19:35:05.214Z,18.67
2019-05-03T19:37:34.222Z,16.73
2019-05-03T19:40:03.450Z,18.50
2019-05-03T19:42:32.425Z,16.53
2019-05-03T19:45:01.449Z,15.60
2019-05-03T19:47:30.449Z,16.00
2019-05-03T19:49:59.351Z,13.93
2019-05-03T19:52:34.358Z,16.47
2019-05-03T19:55:04.781Z,15.30
2019-05-03T19:57:38.013Z,17.17
2019-05-03T20:00:07.981Z,14.17
2019-05-03T20:02:45.373Z,15.33
2019-05-03T20:05:34.505Z,14.37
2019-05-03T20:08:28.649Z,15.03
2019-05-03T20:11:16.699Z,17.97
2019-05-03T20:13:46.108Z,16.07
2019-05-03T20:16:15.671Z,15.93
2019-05-03T20:18:45.567Z,18.73
2019-05-03T20:21:15.174Z,17.43
2019-05-03T20:23:44.707Z,18.17
2019-05-03T20:26:15.310Z,16.37
2019-05-03T20:28:45.130Z,17.67
2019-05-03T20:31:14.263Z,16.27
2019-05-03T20:33:43.234Z,16.17
2019-05-03T20:36:12.173Z,16.93
2019-05-03T20:38:41.169Z,14.37
2019-05-03T20:41:10.182Z,14.50
2019-05-03T20:44:07.310Z,13.33
2019-05-03T20:46:45.591Z,14.97
2019-05-03T20:49:15.301Z,14.90
2019-05-03T20:51:45.311Z,15.70
2019-05-03T20:54:15.378Z,15.17
2019-05-03T20:56:45.586Z,16.03
2019-05-03T20:59:14.847Z,14.57
2019-05-03T21:01:45.320Z,14.43
2019-05-03T21:04:15.397Z,15.40
2019-05-03T21:06:45.494Z,14.70
2019-05-03T21:09:14.985Z,14.10
2019-05-03T21:11:44.807Z,14.70
2019-05-03T21:14:15.588Z,14.83
2019-05-03T21:17:06.898Z,14.57
2019-05-03T21:19:49.998Z,15.03
2019-05-03T21:22:22.377Z,15.10
2019-05-03T21:24:56.909Z,15.70
2019-05-03T21:27:26.233Z,16.77
2019-05-03T21:29:55.434Z,17.73
2019-05-03T21:32:25.091Z,19.30
2019-05-03T21:34:55.787Z,17.27
2019-05-03T21:37:25.052Z,19.53
2019-05-03T21:39:54.855Z,18.43
2019-05-03T21:42:24.121Z,17.70
2019-05-03T21:44:53.077Z,18.60
2019-05-03T21:47:40.071Z,18.70
2019-05-03T21:50:11.806Z,19.23
2019-05-03T21:52:40.748Z,18.57
2019-05-03T21:55:09.808Z,20.20
2019-05-03T21:57:38.889Z,17.70
2019-05-03T22:00:08.530Z,19.60
2019-05-03T22:02:37.482Z,17.93
2019-05-03T22:05:07.124Z,19.37
2019-05-03T22:07:36.184Z,18.30
2019-05-03T22:10:05.969Z,17.40
2019-05-03T22:12:35.594Z,15.83
2019-05-03T22:15:29.821Z,16.87
2019-05-03T22:18:17.839Z,16.50
2019-05-03T22:21:15.121Z,17.67
2019-05-03T22:24:14.655Z,15.67
2019-05-03T22:26:58.481Z,18.17
2019-05-03T22:29:27.666Z,17.13
2019-05-03T22:31:56.684Z,16.60
2019-05-03T22:34:25.997Z,16.53
2019-05-03T22:36:55.247Z,17.97
2019-05-03T22:39:24.946Z,17.40
2019-05-03T22:41:54.214Z,18.23
2019-05-03T22:44:25.102Z,16.80
2019-05-03T22:46:55.162Z,18.70
2019-05-03T22:49:25.966Z,16.37
2019-05-03T22:51:55.369Z,17.50
2019-05-03T22:54:24.684Z,16.93
2019-05-03T22:56:55.553Z,17.97
2019-05-03T22:59:25.202Z,17.63
2019-05-03T23:01:54.871Z,17.33
2019-05-03T23:04:25.251Z,17.50
2019-05-03T23:06:55.514Z,17.27
2019-05-03T23:09:25.117Z,17.07
2019-05-03T23:11:55.177Z,16.63
2019-05-03T23:14:25.423Z,17.47
2019-05-03T23:16:54.739Z,16.67
2019-05-03T23:19:23.593Z,15.87
2019-05-03T23:22:10.198Z,17.10
2019-05-03T23:24:39.130Z,17.57
2019-05-03T23:27:08.065Z,16.27
2019-05-03T23:29:37.237Z,17.23
2019-05-03T23:32:06.225Z,17.10
2019-05-03T23:34:35.342Z,17.17
2019-05-03T23:37:05.411Z,17.63
2019-05-03T23:39:34.739Z,17.20
2019-05-03T23:42:05.046Z,18.57
2019-05-03T23:44:35.054Z,16.33
2019-05-03T23:47:29.636Z,18.13
2019-05-03T23:49:58.636Z,17.13
2019-05-03T23:52:35.467Z,17.10
2019-05-03T23:55:27.736Z,17.33
2019-05-03T23:57:56.663Z,17.47
